Weather at Half Moon Bay Airport

Public forecast

Using degrees Fahrenheit for public forecast. Weather courtesy of forecast.io.

Current aviation weather report (METAR) for Half Moon Bay Airport

Retrieved 2022/06/29 09:15 UTC (7 minutes ago):

KHAF 290915Z AUTO 33009KT 5SM BR OVC006 13/13 A3004 RMK AO2

Closest aviation forecast (TAF) to Half Moon Bay Airport

Closest forecast is San Francisco International Airport, 8.7 nm (16.2 km) NE. Retrieved 2022/06/29 06:33 UTC (3 hours ago):

TAF KSFO 290530Z 2906/3012 28013G20KT P6SM FEW007 FM290900 28012KT P6SM SCT007 TEMPO 2912/2916 P6SM BKN007 FM291700 29015KT P6SM FEW007 FM292100 28018G27KT P6SM SKC FM300500 27008KT P6SM SCT008